TimeCDT,TemperatureF,Dew PointF,Humidity,Sea Level PressureIn,VisibilityMPH,Wind Direction,Wind SpeedMPH,Gust SpeedMPH,PrecipitationIn,Events,Conditions,WindDirDegrees,DateUTC
12:53 AM,73.9,72.0,93,29.99,10.0,Calm,Calm,-,N/A,,Clear,0,2014-08-12 05:53:00
1:53 AM,73.9,72.0,93,29.99,10.0,Calm,Calm,-,N/A,,Clear,0,2014-08-12 06:53:00
2:53 AM,73.0,71.1,93,29.96,10.0,ENE,3.5,-,N/A,,Clear,70,2014-08-12 07:53:00
3:53 AM,73.4,71.6,94,29.97,10.0,Calm,Calm,-,N/A,,Clear,0,2014-08-12 08:53:00
4:53 AM,73.0,71.1,93,29.97,10.0,Calm,Calm,-,N/A,,Clear,0,2014-08-12 09:53:00
5:53 AM,73.0,71.1,93,29.99,10.0,Calm,Calm,-,N/A,,Clear,0,2014-08-12 10:53:00
6:53 AM,73.9,72.0,93,30.00,10.0,SW,3.5,-,N/A,,Mostly Cloudy,230,2014-08-12 11:53:00
7:53 AM,75.0,73.0,94,30.00,10.0,WSW,3.5,-,N/A,,Mostly Cloudy,250,2014-08-12 12:53:00
8:53 AM,79.0,73.0,82,30.01,10.0,NW,6.9,-,N/A,,Mostly Cloudy,310,2014-08-12 13:53:00
9:53 AM,82.0,73.0,74,30.00,10.0,WNW,10.4,-,N/A,,Clear,300,2014-08-12 14:53:00
10:53 AM,84.0,73.0,69,30.01,10.0,WNW,5.8,-,N/A,,Clear,300,2014-08-12 15:53:00
12:39 PM,87.1,75.0,67,29.99,10.0,WNW,4.6,-,N/A,,Mostly Cloudy,300,2014-08-12 17:39:00
12:48 PM,87.8,75.2,66,29.99,10.0,Calm,Calm,-,N/A,,Mostly Cloudy,0,2014-08-12 17:48:00
12:53 PM,88.0,73.9,63,29.99,10.0,Variable,5.8,-,N/A,,Mostly Cloudy,0,2014-08-12 17:53:00
1:00 PM,87.1,73.9,65,29.99,10.0,NW,9.2,-,N/A,,Mostly Cloudy,320,2014-08-12 18:00:00
1:45 PM,88.0,75.0,65,29.97,10.0,Variable,3.5,-,N/A,,Mostly Cloudy,0,2014-08-12 18:45:00
1:53 PM,88.0,73.9,63,29.97,10.0,NNW,4.6,-,N/A,,Overcast,340,2014-08-12 18:53:00
2:53 PM,90.0,75.0,61,29.96,10.0,Variable,3.5,-,N/A,,Scattered Clouds,0,2014-08-12 19:53:00
3:53 PM,87.1,77.0,72,29.94,10.0,Calm,Calm,-,N/A,,Overcast,0,2014-08-12 20:53:00
4:53 PM,90.0,70.0,52,29.92,10.0,North,8.1,-,N/A,,Partly Cloudy,360,2014-08-12 21:53:00
5:53 PM,91.0,70.0,50,29.91,10.0,NNE,8.1,-,N/A,,Clear,20,2014-08-12 22:53:00
6:53 PM,89.1,72.0,57,29.90,10.0,Calm,Calm,-,N/A,,Clear,0,2014-08-12 23:53:00
7:53 PM,82.9,77.0,82,29.92,10.0,Calm,Calm,-,N/A,,Clear,0,2014-08-13 00:53:00
8:53 PM,81.0,77.0,88,29.94,10.0,Calm,Calm,-,N/A,,Clear,0,2014-08-13 01:53:00
9:53 PM,80.1,77.0,90,29.96,10.0,Calm,Calm,-,N/A,,Clear,0,2014-08-13 02:53:00
10:53 PM,80.1,75.9,87,29.96,10.0,Calm,Calm,-,N/A,,Partly Cloudy,0,2014-08-13 03:53:00
11:53 PM,80.1,75.0,85,29.97,10.0,Calm,Calm,-,N/A,,Clear,0,2014-08-13 04:53:00